sensor_id;sensor_type;location;lat;lon;timestamp;P1;durP1;ratioP1;P2;durP2;ratioP2
48623;SDS011;34422;45.802;16.114;2022-12-18T00:01:26;85.65;;;47.38;;
48623;SDS011;34422;45.802;16.114;2022-12-18T00:03:55;72.88;;;40.72;;
48623;SDS011;34422;45.802;16.114;2022-12-18T00:06:22;64.97;;;35.80;;
48623;SDS011;34422;45.802;16.114;2022-12-18T00:08:50;62.47;;;34.58;;
48623;SDS011;34422;45.802;16.114;2022-12-18T00:11:18;64.13;;;35.58;;
48623;SDS011;34422;45.802;16.114;2022-12-18T00:13:46;62.78;;;35.85;;
48623;SDS011;34422;45.802;16.114;2022-12-18T00:16:15;68.00;;;34.90;;
48623;SDS011;34422;45.802;16.114;2022-12-18T00:18:47;62.58;;;35.38;;
48623;SDS011;34422;45.802;16.114;2022-12-18T00:21:17;69.10;;;36.25;;
48623;SDS011;34422;45.802;16.114;2022-12-18T00:23:45;66.18;;;35.30;;
48623;SDS011;34422;45.802;16.114;2022-12-18T00:26:14;62.60;;;35.67;;
48623;SDS011;34422;45.802;16.114;2022-12-18T00:28:46;71.47;;;38.35;;
48623;SDS011;34422;45.802;16.114;2022-12-18T00:31:17;70.18;;;36.75;;
48623;SDS011;34422;45.802;16.114;2022-12-18T00:33:45;65.97;;;37.30;;
48623;SDS011;34422;45.802;16.114;2022-12-18T00:36:14;64.88;;;35.05;;
48623;SDS011;34422;45.802;16.114;2022-12-18T00:38:44;60.40;;;33.85;;
48623;SDS011;34422;45.802;16.114;2022-12-18T00:41:12;59.67;;;34.38;;
48623;SDS011;34422;45.802;16.114;2022-12-18T00:44:01;62.17;;;33.33;;
48623;SDS011;34422;45.802;16.114;2022-12-18T00:46:28;54.70;;;30.95;;
48623;SDS011;34422;45.802;16.114;2022-12-18T00:48:55;51.28;;;29.30;;
48623;SDS011;34422;45.802;16.114;2022-12-18T00:51:23;51.20;;;28.17;;
48623;SDS011;34422;45.802;16.114;2022-12-18T00:53:50;51.33;;;29.40;;
48623;SDS011;34422;45.802;16.114;2022-12-18T00:56:17;52.45;;;28.15;;
48623;SDS011;34422;45.802;16.114;2022-12-18T00:58:50;49.53;;;26.98;;
48623;SDS011;34422;45.802;16.114;2022-12-18T01:01:17;50.25;;;27.42;;
48623;SDS011;34422;45.802;16.114;2022-12-18T01:03:44;50.58;;;28.02;;
48623;SDS011;34422;45.802;16.114;2022-12-18T01:06:13;43.83;;;24.30;;
48623;SDS011;34422;45.802;16.114;2022-12-18T01:08:41;44.90;;;24.63;;
48623;SDS011;34422;45.802;16.114;2022-12-18T01:11:09;51.92;;;27.35;;
48623;SDS011;34422;45.802;16.114;2022-12-18T01:13:38;49.35;;;27.40;;
48623;SDS011;34422;45.802;16.114;2022-12-18T01:16:06;50.92;;;27.15;;
48623;SDS011;34422;45.802;16.114;2022-12-18T01:18:33;50.97;;;28.92;;
48623;SDS011;34422;45.802;16.114;2022-12-18T01:21:00;50.75;;;27.80;;
48623;SDS011;34422;45.802;16.114;2022-12-18T01:23:27;46.17;;;25.25;;
48623;SDS011;34422;45.802;16.114;2022-12-18T01:25:54;47.83;;;25.63;;
48623;SDS011;34422;45.802;16.114;2022-12-18T01:28:20;49.30;;;27.33;;
48623;SDS011;34422;45.802;16.114;2022-12-18T01:30:47;49.58;;;26.25;;
48623;SDS011;34422;45.802;16.114;2022-12-18T01:33:14;44.00;;;23.08;;
48623;SDS011;34422;45.802;16.114;2022-12-18T01:35:41;46.53;;;24.98;;
48623;SDS011;34422;45.802;16.114;2022-12-18T01:38:09;46.17;;;24.30;;
48623;SDS011;34422;45.802;16.114;2022-12-18T01:40:36;48.03;;;24.08;;
48623;SDS011;34422;45.802;16.114;2022-12-18T01:43:03;49.58;;;26.70;;
48623;SDS011;34422;45.802;16.114;2022-12-18T01:45:30;48.65;;;24.88;;
48623;SDS011;34422;45.802;16.114;2022-12-18T01:47:59;44.20;;;24.70;;
48623;SDS011;34422;45.802;16.114;2022-12-18T01:50:31;49.28;;;25.35;;
48623;SDS011;34422;45.802;16.114;2022-12-18T01:55:51;50.80;;;25.88;;
48623;SDS011;34422;45.802;16.114;2022-12-18T01:58:20;49.92;;;24.80;;
48623;SDS011;34422;45.802;16.114;2022-12-18T02:00:54;45.42;;;24.83;;
48623;SDS011;34422;45.802;16.114;2022-12-18T02:03:21;49.50;;;24.50;;
48623;SDS011;34422;45.802;16.114;2022-12-18T02:08:45;44.22;;;22.95;;
48623;SDS011;34422;45.802;16.114;2022-12-18T02:14:36;42.25;;;24.42;;
48623;SDS011;34422;45.802;16.114;2022-12-18T02:16:51;47.33;;;23.38;;
48623;SDS011;34422;45.802;16.114;2022-12-18T02:25:53;39.85;;;21.98;;
48623;SDS011;34422;45.802;16.114;2022-12-18T02:28:26;42.25;;;21.60;;
48623;SDS011;34422;45.802;16.114;2022-12-18T02:30:58;40.30;;;22.67;;
48623;SDS011;34422;45.802;16.114;2022-12-18T02:33:28;41.10;;;21.00;;
48623;SDS011;34422;45.802;16.114;2022-12-18T02:35:57;44.85;;;23.38;;
48623;SDS011;34422;45.802;16.114;2022-12-18T02:38:26;42.28;;;21.35;;
48623;SDS011;34422;45.802;16.114;2022-12-18T02:40:56;45.90;;;22.55;;
48623;SDS011;34422;45.802;16.114;2022-12-18T02:43:24;39.67;;;21.83;;
48623;SDS011;34422;45.802;16.114;2022-12-18T02:45:55;45.83;;;23.88;;
48623;SDS011;34422;45.802;16.114;2022-12-18T02:48:26;41.88;;;22.23;;
48623;SDS011;34422;45.802;16.114;2022-12-18T02:56:18;48.55;;;25.55;;
48623;SDS011;34422;45.802;16.114;2022-12-18T02:59:00;49.10;;;25.77;;
48623;SDS011;34422;45.802;16.114;2022-12-18T03:04:16;53.13;;;25.70;;
48623;SDS011;34422;45.802;16.114;2022-12-18T03:06:50;45.65;;;24.55;;
48623;SDS011;34422;45.802;16.114;2022-12-18T03:09:22;51.57;;;27.80;;
48623;SDS011;34422;45.802;16.114;2022-12-18T03:11:55;47.72;;;25.15;;
48623;SDS011;34422;45.802;16.114;2022-12-18T03:14:46;50.92;;;26.25;;
48623;SDS011;34422;45.802;16.114;2022-12-18T03:17:19;57.53;;;29.20;;
48623;SDS011;34422;45.802;16.114;2022-12-18T03:19:49;48.75;;;24.95;;
48623;SDS011;34422;45.802;16.114;2022-12-18T03:22:17;54.50;;;28.63;;
48623;SDS011;34422;45.802;16.114;2022-12-18T03:24:45;53.47;;;29.92;;
48623;SDS011;34422;45.802;16.114;2022-12-18T03:27:15;52.72;;;27.48;;
48623;SDS011;34422;45.802;16.114;2022-12-18T03:29:47;51.67;;;26.00;;
48623;SDS011;34422;45.802;16.114;2022-12-18T03:32:20;51.88;;;26.77;;
48623;SDS011;34422;45.802;16.114;2022-12-18T03:34:58;46.75;;;25.92;;
48623;SDS011;34422;45.802;16.114;2022-12-18T03:37:29;48.65;;;25.60;;
48623;SDS011;34422;45.802;16.114;2022-12-18T03:39:57;47.75;;;25.30;;
48623;SDS011;34422;45.802;16.114;2022-12-18T03:48:18;43.53;;;24.23;;
48623;SDS011;34422;45.802;16.114;2022-12-18T03:50:46;41.35;;;23.00;;
48623;SDS011;34422;45.802;16.114;2022-12-18T03:55:59;46.50;;;24.33;;
48623;SDS011;34422;45.802;16.114;2022-12-18T03:58:28;50.25;;;25.33;;
48623;SDS011;34422;45.802;16.114;2022-12-18T04:00:56;44.58;;;23.25;;
48623;SDS011;34422;45.802;16.114;2022-12-18T04:03:28;46.30;;;24.27;;
48623;SDS011;34422;45.802;16.114;2022-12-18T04:05:56;48.20;;;26.27;;
48623;SDS011;34422;45.802;16.114;2022-12-18T04:08:25;46.38;;;25.45;;
48623;SDS011;34422;45.802;16.114;2022-12-18T04:10:53;48.15;;;25.27;;
48623;SDS011;34422;45.802;16.114;2022-12-18T04:13:30;45.95;;;24.40;;
48623;SDS011;34422;45.802;16.114;2022-12-18T04:16:00;48.20;;;25.67;;
48623;SDS011;34422;45.802;16.114;2022-12-18T04:18:27;53.80;;;26.75;;
48623;SDS011;34422;45.802;16.114;2022-12-18T04:20:54;51.45;;;25.50;;
48623;SDS011;34422;45.802;16.114;2022-12-18T04:23:21;53.40;;;28.03;;
48623;SDS011;34422;45.802;16.114;2022-12-18T04:25:48;49.08;;;26.90;;
48623;SDS011;34422;45.802;16.114;2022-12-18T04:28:15;47.28;;;24.90;;
48623;SDS011;34422;45.802;16.114;2022-12-18T04:30:41;49.27;;;25.77;;
48623;SDS011;34422;45.802;16.114;2022-12-18T04:33:12;72.43;;;34.33;;
48623;SDS011;34422;45.802;16.114;2022-12-18T04:35:44;60.42;;;31.65;;
48623;SDS011;34422;45.802;16.114;2022-12-18T04:38:11;60.53;;;31.07;;
48623;SDS011;34422;45.802;16.114;2022-12-18T04:40:38;59.92;;;29.88;;
48623;SDS011;34422;45.802;16.114;2022-12-18T04:43:05;55.80;;;29.00;;
48623;SDS011;34422;45.802;16.114;2022-12-18T04:45:32;54.17;;;28.83;;
48623;SDS011;34422;45.802;16.114;2022-12-18T04:47:59;64.97;;;30.80;;
48623;SDS011;34422;45.802;16.114;2022-12-18T04:50:27;51.13;;;27.67;;
48623;SDS011;34422;45.802;16.114;2022-12-18T04:52:54;58.17;;;29.80;;
48623;SDS011;34422;45.802;16.114;2022-12-18T04:55:21;58.05;;;29.00;;
48623;SDS011;34422;45.802;16.114;2022-12-18T04:57:48;52.63;;;28.67;;
48623;SDS011;34422;45.802;16.114;2022-12-18T05:00:15;61.97;;;29.53;;
48623;SDS011;34422;45.802;16.114;2022-12-18T05:02:42;61.13;;;29.93;;
48623;SDS011;34422;45.802;16.114;2022-12-18T05:05:08;57.63;;;29.17;;
48623;SDS011;34422;45.802;16.114;2022-12-18T05:07:35;54.17;;;29.65;;
48623;SDS011;34422;45.802;16.114;2022-12-18T05:10:03;60.90;;;31.45;;
48623;SDS011;34422;45.802;16.114;2022-12-18T05:12:33;60.07;;;30.83;;
48623;SDS011;34422;45.802;16.114;2022-12-18T05:14:59;57.43;;;30.93;;
48623;SDS011;34422;45.802;16.114;2022-12-18T05:17:30;61.53;;;31.23;;
48623;SDS011;34422;45.802;16.114;2022-12-18T05:19:57;55.37;;;29.73;;
48623;SDS011;34422;45.802;16.114;2022-12-18T05:22:23;62.72;;;31.75;;
48623;SDS011;34422;45.802;16.114;2022-12-18T05:24:52;60.73;;;30.60;;
48623;SDS011;34422;45.802;16.114;2022-12-18T05:27:19;62.70;;;32.03;;
48623;SDS011;34422;45.802;16.114;2022-12-18T05:29:46;62.03;;;32.45;;
48623;SDS011;34422;45.802;16.114;2022-12-18T05:32:13;62.25;;;32.00;;
48623;SDS011;34422;45.802;16.114;2022-12-18T05:34:40;56.30;;;30.08;;
48623;SDS011;34422;45.802;16.114;2022-12-18T05:37:07;62.15;;;34.17;;
48623;SDS011;34422;45.802;16.114;2022-12-18T05:39:33;72.28;;;35.58;;
48623;SDS011;34422;45.802;16.114;2022-12-18T05:42:00;67.70;;;34.00;;
48623;SDS011;34422;45.802;16.114;2022-12-18T05:44:27;64.85;;;33.97;;
48623;SDS011;34422;45.802;16.114;2022-12-18T05:46:54;64.85;;;34.50;;
48623;SDS011;34422;45.802;16.114;2022-12-18T05:49:21;67.90;;;36.50;;
48623;SDS011;34422;45.802;16.114;2022-12-18T05:51:47;68.47;;;38.53;;
48623;SDS011;34422;45.802;16.114;2022-12-18T05:54:14;70.47;;;36.40;;
48623;SDS011;34422;45.802;16.114;2022-12-18T05:56:41;61.45;;;33.85;;
48623;SDS011;34422;45.802;16.114;2022-12-18T05:59:08;70.88;;;37.25;;
48623;SDS011;34422;45.802;16.114;2022-12-18T06:01:35;63.78;;;35.17;;
48623;SDS011;34422;45.802;16.114;2022-12-18T06:04:01;74.45;;;35.53;;
48623;SDS011;34422;45.802;16.114;2022-12-18T06:06:29;61.35;;;33.47;;
48623;SDS011;34422;45.802;16.114;2022-12-18T06:08:56;66.45;;;34.90;;
48623;SDS011;34422;45.802;16.114;2022-12-18T06:11:24;60.43;;;34.13;;
48623;SDS011;34422;45.802;16.114;2022-12-18T06:13:53;66.18;;;34.75;;
48623;SDS011;34422;45.802;16.114;2022-12-18T06:16:21;67.13;;;34.20;;
48623;SDS011;34422;45.802;16.114;2022-12-18T06:18:48;66.90;;;34.60;;
48623;SDS011;34422;45.802;16.114;2022-12-18T06:21:15;70.22;;;37.40;;
48623;SDS011;34422;45.802;16.114;2022-12-18T06:23:41;68.68;;;35.95;;
48623;SDS011;34422;45.802;16.114;2022-12-18T06:26:10;74.65;;;39.08;;
48623;SDS011;34422;45.802;16.114;2022-12-18T06:28:38;71.22;;;38.65;;
48623;SDS011;34422;45.802;16.114;2022-12-18T06:31:05;70.57;;;39.55;;
48623;SDS011;34422;45.802;16.114;2022-12-18T06:33:33;77.05;;;39.10;;
48623;SDS011;34422;45.802;16.114;2022-12-18T06:36:02;82.70;;;43.78;;
48623;SDS011;34422;45.802;16.114;2022-12-18T06:38:31;79.57;;;42.03;;
48623;SDS011;34422;45.802;16.114;2022-12-18T06:40:59;84.60;;;42.90;;
48623;SDS011;34422;45.802;16.114;2022-12-18T06:43:26;88.30;;;45.17;;
48623;SDS011;34422;45.802;16.114;2022-12-18T06:45:58;81.90;;;39.88;;
48623;SDS011;34422;45.802;16.114;2022-12-18T06:48:28;70.43;;;38.90;;
48623;SDS011;34422;45.802;16.114;2022-12-18T06:50:55;83.10;;;43.28;;
48623;SDS011;34422;45.802;16.114;2022-12-18T06:53:22;72.68;;;37.50;;
48623;SDS011;34422;45.802;16.114;2022-12-18T06:55:49;67.53;;;36.33;;
48623;SDS011;34422;45.802;16.114;2022-12-18T06:58:16;71.95;;;38.33;;
48623;SDS011;34422;45.802;16.114;2022-12-18T07:00:43;68.75;;;36.90;;
48623;SDS011;34422;45.802;16.114;2022-12-18T07:03:10;72.03;;;37.70;;
48623;SDS011;34422;45.802;16.114;2022-12-18T07:05:40;76.65;;;36.97;;
48623;SDS011;34422;45.802;16.114;2022-12-18T07:08:07;65.90;;;35.20;;
48623;SDS011;34422;45.802;16.114;2022-12-18T07:10:40;83.00;;;38.78;;
48623;SDS011;34422;45.802;16.114;2022-12-18T07:13:08;73.13;;;38.27;;
48623;SDS011;34422;45.802;16.114;2022-12-18T07:15:34;75.18;;;37.00;;
48623;SDS011;34422;45.802;16.114;2022-12-18T07:18:01;68.75;;;37.47;;
48623;SDS011;34422;45.802;16.114;2022-12-18T07:20:28;68.00;;;36.00;;
48623;SDS011;34422;45.802;16.114;2022-12-18T07:22:55;70.35;;;38.17;;
48623;SDS011;34422;45.802;16.114;2022-12-18T07:25:22;69.40;;;36.80;;
48623;SDS011;34422;45.802;16.114;2022-12-18T07:27:49;70.30;;;33.33;;
48623;SDS011;34422;45.802;16.114;2022-12-18T07:30:15;59.22;;;32.50;;
48623;SDS011;34422;45.802;16.114;2022-12-18T07:32:42;56.35;;;30.25;;
48623;SDS011;34422;45.802;16.114;2022-12-18T07:35:09;57.75;;;30.73;;
48623;SDS011;34422;45.802;16.114;2022-12-18T07:37:36;55.97;;;29.90;;
48623;SDS011;34422;45.802;16.114;2022-12-18T07:40:02;51.88;;;28.13;;
48623;SDS011;34422;45.802;16.114;2022-12-18T07:42:29;49.22;;;25.92;;
48623;SDS011;34422;45.802;16.114;2022-12-18T07:44:59;45.55;;;24.42;;
48623;SDS011;34422;45.802;16.114;2022-12-18T07:47:42;41.63;;;21.70;;
48623;SDS011;34422;45.802;16.114;2022-12-18T07:50:09;45.33;;;24.83;;
48623;SDS011;34422;45.802;16.114;2022-12-18T07:52:35;50.40;;;26.02;;
48623;SDS011;34422;45.802;16.114;2022-12-18T07:55:02;46.95;;;25.35;;
48623;SDS011;34422;45.802;16.114;2022-12-18T07:57:29;47.47;;;25.83;;
48623;SDS011;34422;45.802;16.114;2022-12-18T07:59:56;53.55;;;27.17;;
48623;SDS011;34422;45.802;16.114;2022-12-18T08:02:23;53.90;;;27.27;;
48623;SDS011;34422;45.802;16.114;2022-12-18T08:04:50;53.42;;;28.00;;
48623;SDS011;34422;45.802;16.114;2022-12-18T08:07:19;53.00;;;26.38;;
48623;SDS011;34422;45.802;16.114;2022-12-18T08:09:46;47.50;;;26.60;;
48623;SDS011;34422;45.802;16.114;2022-12-18T08:12:13;40.28;;;22.63;;
48623;SDS011;34422;45.802;16.114;2022-12-18T08:14:40;45.47;;;23.38;;
48623;SDS011;34422;45.802;16.114;2022-12-18T08:17:07;37.40;;;19.67;;
48623;SDS011;34422;45.802;16.114;2022-12-18T08:19:34;33.10;;;17.15;;
48623;SDS011;34422;45.802;16.114;2022-12-18T08:22:00;35.33;;;18.80;;
48623;SDS011;34422;45.802;16.114;2022-12-18T08:24:27;35.50;;;19.80;;
48623;SDS011;34422;45.802;16.114;2022-12-18T08:26:54;37.05;;;19.13;;
48623;SDS011;34422;45.802;16.114;2022-12-18T08:29:21;34.22;;;18.70;;
48623;SDS011;34422;45.802;16.114;2022-12-18T08:31:48;33.20;;;17.20;;
48623;SDS011;34422;45.802;16.114;2022-12-18T08:34:14;32.22;;;17.48;;
48623;SDS011;34422;45.802;16.114;2022-12-18T08:36:41;33.17;;;17.70;;
48623;SDS011;34422;45.802;16.114;2022-12-18T08:39:08;34.33;;;17.40;;
48623;SDS011;34422;45.802;16.114;2022-12-18T08:41:35;29.17;;;16.38;;
48623;SDS011;34422;45.802;16.114;2022-12-18T08:44:02;29.17;;;16.40;;
48623;SDS011;34422;45.802;16.114;2022-12-18T08:46:47;32.00;;;17.65;;
48623;SDS011;34422;45.802;16.114;2022-12-18T08:49:14;35.97;;;18.17;;
48623;SDS011;34422;45.802;16.114;2022-12-18T08:51:40;27.52;;;15.98;;
48623;SDS011;34422;45.802;16.114;2022-12-18T08:54:13;27.38;;;14.50;;
48623;SDS011;34422;45.802;16.114;2022-12-18T08:56:40;30.20;;;17.60;;
48623;SDS011;34422;45.802;16.114;2022-12-18T08:59:08;29.48;;;16.65;;
48623;SDS011;34422;45.802;16.114;2022-12-18T09:01:35;32.78;;;18.05;;
48623;SDS011;34422;45.802;16.114;2022-12-18T09:04:02;24.42;;;13.20;;
48623;SDS011;34422;45.802;16.114;2022-12-18T09:06:29;33.85;;;17.63;;
48623;SDS011;34422;45.802;16.114;2022-12-18T09:08:56;25.20;;;13.25;;
48623;SDS011;34422;45.802;16.114;2022-12-18T09:11:24;25.08;;;14.50;;
48623;SDS011;34422;45.802;16.114;2022-12-18T09:13:54;28.83;;;15.00;;
48623;SDS011;34422;45.802;16.114;2022-12-18T09:16:22;26.73;;;14.25;;
48623;SDS011;34422;45.802;16.114;2022-12-18T09:18:50;24.70;;;14.32;;
48623;SDS011;34422;45.802;16.114;2022-12-18T09:21:18;29.15;;;15.10;;
48623;SDS011;34422;45.802;16.114;2022-12-18T09:23:50;25.33;;;14.70;;
48623;SDS011;34422;45.802;16.114;2022-12-18T09:26:17;25.13;;;13.82;;
48623;SDS011;34422;45.802;16.114;2022-12-18T09:28:44;23.33;;;12.60;;
48623;SDS011;34422;45.802;16.114;2022-12-18T09:31:11;21.50;;;11.60;;
48623;SDS011;34422;45.802;16.114;2022-12-18T09:33:40;24.45;;;12.63;;
48623;SDS011;34422;45.802;16.114;2022-12-18T09:36:08;19.58;;;11.27;;
48623;SDS011;34422;45.802;16.114;2022-12-18T09:38:37;21.77;;;10.73;;
48623;SDS011;34422;45.802;16.114;2022-12-18T09:41:05;24.63;;;12.60;;
48623;SDS011;34422;45.802;16.114;2022-12-18T09:43:49;23.17;;;12.93;;
48623;SDS011;34422;45.802;16.114;2022-12-18T09:46:25;20.60;;;11.88;;
48623;SDS011;34422;45.802;16.114;2022-12-18T09:48:56;22.80;;;12.27;;
48623;SDS011;34422;45.802;16.114;2022-12-18T09:51:32;24.40;;;13.20;;
48623;SDS011;34422;45.802;16.114;2022-12-18T09:54:05;23.00;;;11.35;;
48623;SDS011;34422;45.802;16.114;2022-12-18T09:56:39;22.55;;;12.30;;
48623;SDS011;34422;45.802;16.114;2022-12-18T10:02:22;26.45;;;12.75;;
48623;SDS011;34422;45.802;16.114;2022-12-18T10:05:07;24.58;;;12.93;;
48623;SDS011;34422;45.802;16.114;2022-12-18T10:07:50;22.00;;;11.57;;
48623;SDS011;34422;45.802;16.114;2022-12-18T10:10:35;22.75;;;10.75;;
48623;SDS011;34422;45.802;16.114;2022-12-18T10:13:18;23.65;;;12.45;;
48623;SDS011;34422;45.802;16.114;2022-12-18T10:21:42;23.08;;;11.23;;
48623;SDS011;34422;45.802;16.114;2022-12-18T10:24:37;20.70;;;11.20;;
48623;SDS011;34422;45.802;16.114;2022-12-18T10:27:24;23.83;;;12.15;;
48623;SDS011;34422;45.802;16.114;2022-12-18T10:29:52;24.05;;;11.05;;
48623;SDS011;34422;45.802;16.114;2022-12-18T10:32:21;23.52;;;13.13;;
48623;SDS011;34422;45.802;16.114;2022-12-18T10:34:52;23.15;;;12.40;;
48623;SDS011;34422;45.802;16.114;2022-12-18T10:37:22;22.90;;;12.20;;
48623;SDS011;34422;45.802;16.114;2022-12-18T10:40:07;18.23;;;10.73;;
48623;SDS011;34422;45.802;16.114;2022-12-18T10:42:41;19.48;;;10.40;;
48623;SDS011;34422;45.802;16.114;2022-12-18T10:45:11;20.38;;;10.60;;
48623;SDS011;34422;45.802;16.114;2022-12-18T10:47:44;20.67;;;10.20;;
48623;SDS011;34422;45.802;16.114;2022-12-18T10:50:28;19.38;;;9.27;;
48623;SDS011;34422;45.802;16.114;2022-12-18T10:52:59;15.15;;;8.75;;
48623;SDS011;34422;45.802;16.114;2022-12-18T10:55:31;20.77;;;10.77;;
48623;SDS011;34422;45.802;16.114;2022-12-18T11:01:12;19.70;;;9.77;;
48623;SDS011;34422;45.802;16.114;2022-12-18T11:06:25;21.25;;;11.85;;
48623;SDS011;34422;45.802;16.114;2022-12-18T11:09:02;16.38;;;9.13;;
48623;SDS011;34422;45.802;16.114;2022-12-18T11:11:49;18.75;;;9.95;;
48623;SDS011;34422;45.802;16.114;2022-12-18T11:14:22;23.00;;;10.85;;
48623;SDS011;34422;45.802;16.114;2022-12-18T11:16:52;32.80;;;18.95;;
48623;SDS011;34422;45.802;16.114;2022-12-18T11:19:23;19.52;;;10.35;;
48623;SDS011;34422;45.802;16.114;2022-12-18T11:21:56;17.98;;;10.48;;
48623;SDS011;34422;45.802;16.114;2022-12-18T11:24:29;18.92;;;9.88;;
48623;SDS011;34422;45.802;16.114;2022-12-18T11:26:57;16.08;;;9.07;;
48623;SDS011;34422;45.802;16.114;2022-12-18T11:29:28;20.85;;;10.50;;
48623;SDS011;34422;45.802;16.114;2022-12-18T11:34:59;24.90;;;12.98;;
48623;SDS011;34422;45.802;16.114;2022-12-18T11:37:31;23.02;;;11.63;;
48623;SDS011;34422;45.802;16.114;2022-12-18T11:40:00;21.23;;;11.90;;
48623;SDS011;34422;45.802;16.114;2022-12-18T11:42:47;21.27;;;10.80;;
48623;SDS011;34422;45.802;16.114;2022-12-18T11:45:25;22.75;;;12.43;;
48623;SDS011;34422;45.802;16.114;2022-12-18T11:51:01;21.25;;;11.02;;
48623;SDS011;34422;45.802;16.114;2022-12-18T12:09:39;23.33;;;10.60;;
48623;SDS011;34422;45.802;16.114;2022-12-18T12:15:20;18.13;;;10.15;;
48623;SDS011;34422;45.802;16.114;2022-12-18T12:20:53;16.25;;;9.43;;
48623;SDS011;34422;45.802;16.114;2022-12-18T12:23:40;20.55;;;11.43;;
48623;SDS011;34422;45.802;16.114;2022-12-18T12:26:33;20.05;;;10.95;;
48623;SDS011;34422;45.802;16.114;2022-12-18T12:29:13;20.05;;;11.32;;
48623;SDS011;34422;45.802;16.114;2022-12-18T12:40:12;29.05;;;16.65;;
48623;SDS011;34422;45.802;16.114;2022-12-18T12:43:10;25.83;;;13.90;;
48623;SDS011;34422;45.802;16.114;2022-12-18T12:45:46;19.77;;;10.27;;
48623;SDS011;34422;45.802;16.114;2022-12-18T12:48:24;19.30;;;9.85;;
48623;SDS011;34422;45.802;16.114;2022-12-18T12:51:04;17.00;;;9.85;;
48623;SDS011;34422;45.802;16.114;2022-12-18T12:53:37;21.65;;;11.07;;
48623;SDS011;34422;45.802;16.114;2022-12-18T12:56:05;20.35;;;10.70;;
48623;SDS011;34422;45.802;16.114;2022-12-18T13:07:24;17.83;;;10.15;;
48623;SDS011;34422;45.802;16.114;2022-12-18T13:15:37;17.73;;;10.65;;
48623;SDS011;34422;45.802;16.114;2022-12-18T13:25:46;19.50;;;10.68;;
48623;SDS011;34422;45.802;16.114;2022-12-18T13:28:13;38.33;;;21.35;;
48623;SDS011;34422;45.802;16.114;2022-12-18T13:30:46;26.77;;;15.85;;
48623;SDS011;34422;45.802;16.114;2022-12-18T13:38:35;18.70;;;11.40;;
48623;SDS011;34422;45.802;16.114;2022-12-18T13:43:45;20.02;;;11.57;;
48623;SDS011;34422;45.802;16.114;2022-12-18T13:46:23;17.30;;;9.98;;
48623;SDS011;34422;45.802;16.114;2022-12-18T13:49:06;21.00;;;10.88;;
48623;SDS011;34422;45.802;16.114;2022-12-18T13:51:44;21.23;;;10.80;;
48623;SDS011;34422;45.802;16.114;2022-12-18T13:54:34;20.75;;;10.85;;
48623;SDS011;34422;45.802;16.114;2022-12-18T13:57:03;19.38;;;11.48;;
48623;SDS011;34422;45.802;16.114;2022-12-18T13:59:36;21.42;;;12.70;;
48623;SDS011;34422;45.802;16.114;2022-12-18T14:02:16;22.63;;;12.68;;
48623;SDS011;34422;45.802;16.114;2022-12-18T14:04:47;19.10;;;11.43;;
48623;SDS011;34422;45.802;16.114;2022-12-18T14:07:17;17.92;;;10.57;;
48623;SDS011;34422;45.802;16.114;2022-12-18T14:10:00;18.00;;;10.15;;
48623;SDS011;34422;45.802;16.114;2022-12-18T14:12:29;22.52;;;12.55;;
48623;SDS011;34422;45.802;16.114;2022-12-18T14:18:00;19.85;;;12.02;;
48623;SDS011;34422;45.802;16.114;2022-12-18T14:20:32;21.13;;;11.82;;
48623;SDS011;34422;45.802;16.114;2022-12-18T14:23:00;22.25;;;11.77;;
48623;SDS011;34422;45.802;16.114;2022-12-18T14:25:27;25.15;;;12.85;;
48623;SDS011;34422;45.802;16.114;2022-12-18T14:30:36;23.05;;;12.55;;
48623;SDS011;34422;45.802;16.114;2022-12-18T14:33:23;24.30;;;12.38;;
48623;SDS011;34422;45.802;16.114;2022-12-18T14:35:56;22.92;;;12.73;;
48623;SDS011;34422;45.802;16.114;2022-12-18T14:41:12;23.42;;;12.15;;
48623;SDS011;34422;45.802;16.114;2022-12-18T14:43:42;24.15;;;12.35;;
48623;SDS011;34422;45.802;16.114;2022-12-18T14:49:14;23.38;;;12.65;;
48623;SDS011;34422;45.802;16.114;2022-12-18T14:51:49;23.25;;;12.77;;
48623;SDS011;34422;45.802;16.114;2022-12-18T14:54:18;26.33;;;14.70;;
48623;SDS011;34422;45.802;16.114;2022-12-18T14:59:42;29.25;;;14.57;;
48623;SDS011;34422;45.802;16.114;2022-12-18T15:02:19;30.13;;;15.30;;
48623;SDS011;34422;45.802;16.114;2022-12-18T15:04:59;32.80;;;17.43;;
48623;SDS011;34422;45.802;16.114;2022-12-18T15:07:38;27.02;;;15.18;;
48623;SDS011;34422;45.802;16.114;2022-12-18T15:10:17;23.17;;;13.13;;
48623;SDS011;34422;45.802;16.114;2022-12-18T15:18:00;39.65;;;19.90;;
48623;SDS011;34422;45.802;16.114;2022-12-18T15:20:32;38.28;;;21.08;;
48623;SDS011;34422;45.802;16.114;2022-12-18T15:26:05;31.42;;;18.70;;
48623;SDS011;34422;45.802;16.114;2022-12-18T15:28:37;33.47;;;19.48;;
48623;SDS011;34422;45.802;16.114;2022-12-18T15:36:19;34.47;;;18.40;;
48623;SDS011;34422;45.802;16.114;2022-12-18T15:38:49;31.52;;;17.50;;
48623;SDS011;34422;45.802;16.114;2022-12-18T15:41:18;29.35;;;16.13;;
48623;SDS011;34422;45.802;16.114;2022-12-18T15:43:46;28.75;;;15.00;;
48623;SDS011;34422;45.802;16.114;2022-12-18T15:46:18;31.58;;;16.05;;
48623;SDS011;34422;45.802;16.114;2022-12-18T15:48:48;32.92;;;15.40;;
48623;SDS011;34422;45.802;16.114;2022-12-18T15:51:23;27.10;;;15.63;;
48623;SDS011;34422;45.802;16.114;2022-12-18T15:53:55;27.92;;;15.38;;
48623;SDS011;34422;45.802;16.114;2022-12-18T15:56:25;26.08;;;14.77;;
48623;SDS011;34422;45.802;16.114;2022-12-18T15:59:11;28.70;;;14.95;;
48623;SDS011;34422;45.802;16.114;2022-12-18T16:01:40;32.50;;;17.15;;
48623;SDS011;34422;45.802;16.114;2022-12-18T16:04:18;30.40;;;16.83;;
48623;SDS011;34422;45.802;16.114;2022-12-18T16:06:49;46.72;;;23.95;;
48623;SDS011;34422;45.802;16.114;2022-12-18T16:09:18;55.00;;;25.08;;
48623;SDS011;34422;45.802;16.114;2022-12-18T16:11:44;55.80;;;28.70;;
48623;SDS011;34422;45.802;16.114;2022-12-18T16:14:22;53.67;;;27.63;;
48623;SDS011;34422;45.802;16.114;2022-12-18T16:16:51;65.55;;;30.40;;
48623;SDS011;34422;45.802;16.114;2022-12-18T16:19:19;57.45;;;28.42;;
48623;SDS011;34422;45.802;16.114;2022-12-18T16:21:48;55.65;;;30.40;;
48623;SDS011;34422;45.802;16.114;2022-12-18T16:24:21;55.80;;;27.98;;
48623;SDS011;34422;45.802;16.114;2022-12-18T16:26:50;54.67;;;28.75;;
48623;SDS011;34422;45.802;16.114;2022-12-18T16:29:18;53.58;;;29.00;;
48623;SDS011;34422;45.802;16.114;2022-12-18T16:31:46;58.47;;;31.60;;
48623;SDS011;34422;45.802;16.114;2022-12-18T16:34:13;61.80;;;33.15;;
48623;SDS011;34422;45.802;16.114;2022-12-18T16:36:41;71.50;;;37.75;;
48623;SDS011;34422;45.802;16.114;2022-12-18T16:39:08;70.05;;;37.15;;
48623;SDS011;34422;45.802;16.114;2022-12-18T16:41:35;79.90;;;42.38;;
48623;SDS011;34422;45.802;16.114;2022-12-18T16:44:02;73.80;;;38.97;;
48623;SDS011;34422;45.802;16.114;2022-12-18T16:46:29;74.35;;;41.88;;
48623;SDS011;34422;45.802;16.114;2022-12-18T16:48:57;87.32;;;46.80;;